Time;durP1;ratioP1;P1;durP2;ratioP2;P2;SDS_P1;SDS_P2;PMS_P1;PMS_P2;Temp;Humidity;BMP_temperature;BMP_pressure;BME280_temperature;BME280_humidity;BME280_pressure;Samples;Min_cycle;Max_cycle;Signal;HPM_P1;HPM_P2
2023/08/23 00:01:37;;;;;;;3.03;2.72;;;16.70;99.90;;;;;;4979873;28;20043;-81
2023/08/23 00:04:03;;;;;;;3.60;2.83;;;16.60;99.90;;;;;;4975398;28;20640;-81
2023/08/23 00:06:28;;;;;;;5.07;2.75;;;16.60;99.90;;;;;;4976981;28;20049;-81
2023/08/23 00:08:54;;;;;;;2.67;2.45;;;16.60;99.90;;;;;;4982480;28;20042;-81
2023/08/23 00:11:19;;;;;;;2.50;2.30;;;16.60;99.90;;;;;;4974796;28;20503;-81
2023/08/23 00:13:46;;;;;;;3.58;2.65;;;16.60;99.90;;;;;;4967636;28;20043;-81
2023/08/23 00:16:11;;;;;;;3.83;2.67;;;16.50;99.90;;;;;;4975016;28;20035;-81
2023/08/23 00:18:37;;;;;;;4.38;2.63;;;16.50;99.90;;;;;;4954832;28;20035;-81
2023/08/23 00:21:03;;;;;;;4.13;2.90;;;16.60;99.90;;;;;;4973881;28;20038;-81
2023/08/23 00:23:28;;;;;;;3.55;2.40;;;16.50;99.90;;;;;;4988848;28;20039;-81
2023/08/23 00:25:54;;;;;;;5.25;3.28;;;16.40;99.90;;;;;;4980392;28;20042;-81
2023/08/23 00:28:19;;;;;;;7.93;4.68;;;16.40;99.90;;;;;;4973301;28;20070;-81
2023/08/23 00:30:51;;;;;;;6.75;4.93;;;16.40;99.90;;;;;;4977043;28;20035;-81
2023/08/23 00:33:16;;;;;;;7.38;5.22;;;16.30;99.90;;;;;;4983603;28;20081;-81
2023/08/23 00:35:42;;;;;;;4.47;3.58;;;16.30;99.90;;;;;;4989126;28;20043;-81
2023/08/23 00:38:07;;;;;;;4.15;2.92;;;16.30;99.90;;;;;;4977610;28;20097;-81
2023/08/23 00:40:33;;;;;;;3.65;2.53;;;16.20;99.90;;;;;;4991206;28;20043;-81
2023/08/23 00:42:59;;;;;;;4.22;2.17;;;16.20;99.90;;;;;;4964396;28;20133;-81
2023/08/23 00:45:25;;;;;;;3.22;2.00;;;16.20;99.90;;;;;;4973544;28;20042;-81
2023/08/23 00:47:50;;;;;;;5.15;2.55;;;16.20;99.90;;;;;;4989992;28;20402;-81
2023/08/23 00:50:18;;;;;;;4.07;2.90;;;16.20;99.90;;;;;;5013909;23;20132;-73
2023/08/23 00:52:45;;;;;;;5.28;3.40;;;16.10;99.90;;;;;;4980395;28;20030;-73
2023/08/23 00:55:11;;;;;;;7.40;3.90;;;16.30;99.90;;;;;;4972321;28;20038;-73
2023/08/23 00:57:38;;;;;;;5.78;3.97;;;16.10;99.90;;;;;;4979160;28;20050;-73
2023/08/23 01:00:07;;;;;;;6.47;3.80;;;16.10;99.90;;;;;;4974364;28;20084;-72
2023/08/23 01:02:36;;;;;;;4.88;3.67;;;16.10;99.90;;;;;;4959450;28;20050;-73
2023/08/23 01:05:02;;;;;;;4.57;3.67;;;16.00;99.90;;;;;;4985067;28;20041;-73
2023/08/23 01:08:08;;;;;;;6.73;4.17;;;16.00;99.90;;;;;;4994191;28;20085;-73
2023/08/23 01:10:42;;;;;;;6.97;3.88;;;16.00;99.90;;;;;;4972177;28;20046;-73
2023/08/23 01:13:28;;;;;;;4.40;3.47;;;16.00;99.90;;;;;;4997857;28;20050;-76
2023/08/23 01:15:57;;;;;;;4.70;3.00;;;15.90;99.90;;;;;;4990805;28;20042;-76
2023/08/23 01:18:29;;;;;;;5.93;3.30;;;16.00;99.90;;;;;;4999292;28;21417;-76
2023/08/23 01:21:00;;;;;;;4.97;3.85;;;16.00;99.90;;;;;;4981324;28;20035;-76
2023/08/23 01:23:32;;;;;;;6.28;5.07;;;15.90;99.90;;;;;;4984598;28;20034;-76
2023/08/23 01:26:01;;;;;;;8.93;5.45;;;15.90;99.90;;;;;;4965468;28;20030;-75
2023/08/23 01:28:26;;;;;;;7.63;5.18;;;15.90;99.90;;;;;;4963919;28;20057;-76
2023/08/23 01:30:57;;;;;;;6.93;4.80;;;15.90;99.90;;;;;;4975224;28;20505;-76
2023/08/23 01:33:39;;;;;;;5.07;3.63;;;15.90;99.90;;;;;;4971857;28;20541;-76
2023/08/23 01:36:25;;;;;;;4.50;3.45;;;15.90;99.90;;;;;;4972149;28;20406;-76
2023/08/23 01:38:54;;;;;;;3.67;3.00;;;15.90;99.90;;;;;;4974207;28;20037;-76
2023/08/23 01:41:20;;;;;;;5.03;3.30;;;15.80;99.90;;;;;;4974240;28;20046;-76
2023/08/23 01:43:49;;;;;;;4.93;3.40;;;16.00;99.90;;;;;;4978058;28;20057;-76
2023/08/23 01:46:15;;;;;;;6.15;3.50;;;15.80;99.90;;;;;;4993124;28;20042;-76
2023/08/23 01:48:40;;;;;;;6.85;3.80;;;15.90;99.90;;;;;;5006306;28;20046;-76
2023/08/23 01:51:06;;;;;;;7.32;3.63;;;15.80;99.90;;;;;;4993471;28;20053;-76
2023/08/23 01:53:32;;;;;;;5.10;3.30;;;15.80;99.90;;;;;;4991885;28;20035;-76
2023/08/23 01:55:59;;;;;;;5.03;3.10;;;15.80;99.90;;;;;;4980120;28;20092;-76
2023/08/23 01:58:25;;;;;;;5.75;3.40;;;15.80;99.90;;;;;;4991545;28;20414;-76
2023/08/23 02:00:56;;;;;;;5.75;3.53;;;15.80;99.90;;;;;;4993447;28;20068;-76
2023/08/23 02:03:23;;;;;;;4.63;3.50;;;15.80;99.90;;;;;;4976002;28;20038;-76
2023/08/23 02:05:49;;;;;;;6.43;3.75;;;15.80;99.90;;;;;;4992817;28;20046;-76
2023/08/23 02:08:15;;;;;;;5.00;4.05;;;15.80;99.90;;;;;;4976465;28;20046;-76
2023/08/23 02:10:44;;;;;;;7.57;4.85;;;16.00;99.90;;;;;;4999809;28;20093;-75
2023/08/23 02:13:10;;;;;;;6.78;5.30;;;15.80;99.90;;;;;;4991949;28;20058;-75
2023/08/23 02:15:37;;;;;;;7.88;6.15;;;15.70;99.90;;;;;;4993448;28;20431;-75
2023/08/23 02:18:04;;;;;;;10.00;6.93;;;15.70;99.90;;;;;;4985808;28;20046;-75
2023/08/23 02:20:34;;;;;;;11.30;7.47;;;15.80;99.90;;;;;;4992431;28;20042;-75
2023/08/23 02:23:03;;;;;;;10.07;7.90;;;15.80;99.90;;;;;;4977192;28;20050;-75
2023/08/23 02:25:29;;;;;;;10.40;8.38;;;15.80;99.90;;;;;;4977134;28;20042;-76
2023/08/23 02:27:54;;;;;;;10.18;8.48;;;15.90;99.90;;;;;;4986129;28;20040;-75
2023/08/23 02:30:20;;;;;;;11.48;9.38;;;16.00;99.90;;;;;;4982456;28;20091;-75
2023/08/23 02:32:45;;;;;;;12.30;9.63;;;15.90;99.90;;;;;;4972881;28;20165;-75
2023/08/23 02:35:11;;;;;;;11.50;9.18;;;16.00;99.90;;;;;;4984503;28;20042;-76
2023/08/23 02:37:37;;;;;;;12.48;9.48;;;16.10;99.90;;;;;;4990735;28;20054;-76
2023/08/23 02:40:03;;;;;;;13.02;10.18;;;16.00;99.90;;;;;;5002123;28;20033;-76
2023/08/23 02:42:29;;;;;;;12.65;10.05;;;16.00;99.90;;;;;;5004381;28;20045;-76
2023/08/23 02:44:54;;;;;;;12.32;9.70;;;16.00;99.90;;;;;;5007058;28;20034;-76
2023/08/23 02:47:20;;;;;;;16.02;9.73;;;16.00;99.90;;;;;;4996055;28;20042;-76
2023/08/23 02:49:46;;;;;;;11.80;9.15;;;16.00;99.90;;;;;;5006317;28;20061;-76
2023/08/23 02:52:12;;;;;;;13.52;9.88;;;16.00;99.90;;;;;;4983048;28;20034;-76
2023/08/23 02:54:37;;;;;;;11.98;9.70;;;16.10;99.90;;;;;;4994758;28;20049;-76
2023/08/23 02:57:04;;;;;;;13.32;9.70;;;15.90;99.90;;;;;;4987319;28;20038;-76
2023/08/23 02:59:30;;;;;;;13.20;10.27;;;16.00;99.90;;;;;;5000158;28;20038;-76
2023/08/23 03:02:01;;;;;;;12.43;10.55;;;15.90;99.90;;;;;;5004846;28;20045;-76
2023/08/23 03:04:26;;;;;;;12.77;10.50;;;15.90;99.90;;;;;;4997766;28;20065;-76
2023/08/23 03:06:52;;;;;;;13.98;10.27;;;15.90;99.90;;;;;;4973922;28;20042;-76
2023/08/23 03:09:21;;;;;;;12.98;10.18;;;15.90;99.90;;;;;;4978301;28;20586;-76
2023/08/23 03:11:48;;;;;;;12.95;10.32;;;16.00;99.90;;;;;;4992663;28;20038;-76
2023/08/23 03:14:25;;;;;;;12.25;9.85;;;15.90;99.90;;;;;;4975730;28;20422;-76
2023/08/23 03:20:38;;;;;;;14.55;8.88;;;15.90;99.90;;;;;;5009380;22;20309;-62
2023/08/23 03:23:04;;;;;;;10.30;8.15;;;15.90;99.90;;;;;;5010192;28;20038;-62
2023/08/23 03:25:31;;;;;;;9.27;8.15;;;15.80;99.90;;;;;;5004864;28;20037;-66
2023/08/23 03:27:57;;;;;;;10.15;7.80;;;15.80;99.90;;;;;;4983808;28;20096;-62
2023/08/23 03:30:23;;;;;;;10.07;8.70;;;15.80;99.90;;;;;;4991558;28;20497;-62
2023/08/23 03:32:48;;;;;;;14.00;8.40;;;15.80;99.90;;;;;;4988732;28;20035;-62
2023/08/23 03:35:14;;;;;;;8.60;7.25;;;15.80;99.90;;;;;;4988292;28;20393;-63
2023/08/23 03:37:39;;;;;;;8.77;6.95;;;15.70;99.90;;;;;;4968719;28;20034;-63
2023/08/23 03:40:05;;;;;;;10.02;7.10;;;15.70;99.90;;;;;;4979444;28;20039;-61
2023/08/23 03:42:31;;;;;;;8.88;7.18;;;15.70;99.90;;;;;;4984491;28;20042;-66
2023/08/23 03:44:57;;;;;;;9.27;7.03;;;15.60;99.90;;;;;;4975934;28;20041;-66
2023/08/23 03:47:22;;;;;;;9.35;7.40;;;15.60;99.90;;;;;;4988086;28;20042;-62
2023/08/23 03:49:48;;;;;;;10.80;7.13;;;15.50;99.90;;;;;;4962276;28;20397;-64
2023/08/23 03:52:14;;;;;;;8.05;6.85;;;15.50;99.90;;;;;;4987372;28;20043;-65
2023/08/23 03:54:40;;;;;;;8.10;6.65;;;15.50;99.90;;;;;;4990403;28;20501;-64
2023/08/23 03:57:06;;;;;;;7.40;6.57;;;15.50;99.90;;;;;;4986586;28;20097;-61
2023/08/23 03:59:32;;;;;;;7.35;6.40;;;15.40;99.90;;;;;;4988774;28;20042;-62
2023/08/23 04:01:57;;;;;;;7.22;5.78;;;15.40;99.90;;;;;;4981446;28;20043;-62
2023/08/23 04:04:23;;;;;;;7.88;6.10;;;15.40;99.90;;;;;;4981951;28;20042;-62
2023/08/23 04:06:49;;;;;;;8.20;6.00;;;15.40;99.90;;;;;;4984295;28;20732;-64
2023/08/23 04:09:14;;;;;;;8.07;5.90;;;15.30;99.90;;;;;;4989727;28;20077;-62
2023/08/23 04:11:40;;;;;;;7.95;6.20;;;15.40;99.90;;;;;;4980191;28;20052;-62
2023/08/23 04:14:06;;;;;;;8.73;6.28;;;15.30;99.90;;;;;;4974802;28;20125;-62
2023/08/23 04:16:32;;;;;;;7.85;6.13;;;15.30;99.90;;;;;;4983218;28;20121;-62
2023/08/23 04:18:58;;;;;;;7.50;6.53;;;15.30;99.90;;;;;;4976209;28;20082;-62
2023/08/23 04:21:24;;;;;;;9.93;6.63;;;15.30;99.90;;;;;;4990854;28;20100;-62
2023/08/23 04:23:52;;;;;;;9.18;8.10;;;15.30;99.90;;;;;;4987185;28;20058;-62
2023/08/23 04:26:18;;;;;;;11.52;8.45;;;15.40;99.90;;;;;;4983230;28;20043;-63
2023/08/23 04:28:46;;;;;;;12.05;8.77;;;15.40;99.90;;;;;;4977970;28;20089;-66
2023/08/23 04:31:11;;;;;;;10.73;8.60;;;15.40;99.90;;;;;;4985521;28;20043;-63
2023/08/23 04:33:37;;;;;;;12.77;9.15;;;15.40;99.90;;;;;;4998890;28;20427;-62
2023/08/23 04:36:04;;;;;;;15.32;9.13;;;15.40;99.90;;;;;;4990122;28;20101;-61
2023/08/23 04:38:29;;;;;;;12.00;9.27;;;15.40;99.90;;;;;;4991773;28;20038;-66
2023/08/23 04:41:05;;;;;;;12.32;9.45;;;15.50;99.90;;;;;;4987662;28;20179;-61
2023/08/23 04:43:31;;;;;;;13.07;9.85;;;15.50;99.90;;;;;;4986735;28;20042;-62
2023/08/23 04:45:58;;;;;;;14.23;9.85;;;15.50;99.90;;;;;;4988573;28;20036;-61
2023/08/23 04:48:26;;;;;;;12.20;10.20;;;15.60;99.90;;;;;;4991172;28;20392;-64
2023/08/23 04:50:54;;;;;;;14.82;10.45;;;15.60;99.90;;;;;;5004613;28;20048;-64
2023/08/23 04:53:20;;;;;;;13.32;9.90;;;15.60;99.90;;;;;;4996276;28;20103;-61
2023/08/23 04:55:46;;;;;;;13.85;9.98;;;15.60;99.90;;;;;;4990507;28;20448;-62
2023/08/23 04:58:11;;;;;;;14.50;9.70;;;15.60;99.90;;;;;;4979590;28;20062;-61
2023/08/23 05:00:37;;;;;;;14.02;9.40;;;15.70;99.90;;;;;;4993547;28;20425;-62
2023/08/23 05:03:04;;;;;;;15.82;10.73;;;15.70;99.90;;;;;;4989152;28;20042;-62
2023/08/23 05:05:29;;;;;;;14.93;10.57;;;15.70;99.90;;;;;;4987152;28;20401;-62
2023/08/23 05:07:55;;;;;;;14.13;9.90;;;15.70;99.90;;;;;;4988752;28;20084;-62
2023/08/23 05:10:21;;;;;;;17.63;10.20;;;15.80;99.90;;;;;;4999220;28;20046;-61
2023/08/23 05:12:47;;;;;;;13.93;10.02;;;15.80;99.90;;;;;;4990515;28;20404;-62
2023/08/23 05:15:12;;;;;;;13.57;9.85;;;15.80;99.90;;;;;;4992522;28;20042;-64
2023/08/23 05:17:38;;;;;;;11.23;9.23;;;15.70;99.90;;;;;;4999881;28;20034;-62
2023/08/23 05:20:05;;;;;;;13.45;9.40;;;15.70;99.90;;;;;;4993437;28;20397;-62
2023/08/23 05:22:30;;;;;;;14.00;9.93;;;15.80;99.90;;;;;;4982916;28;20053;-64
2023/08/23 05:24:56;;;;;;;12.63;10.18;;;15.80;99.90;;;;;;4987304;28;20034;-63
2023/08/23 05:27:22;;;;;;;13.40;10.10;;;15.80;99.90;;;;;;4988058;28;20044;-62
2023/08/23 05:29:48;;;;;;;14.18;9.73;;;15.80;99.90;;;;;;4985495;28;20030;-63
2023/08/23 05:32:13;;;;;;;13.05;9.55;;;15.80;99.90;;;;;;4986314;28;20398;-62
2023/08/23 05:34:40;;;;;;;16.02;10.02;;;15.90;99.90;;;;;;4989755;28;20405;-63
2023/08/23 05:37:06;;;;;;;12.57;9.48;;;15.80;99.90;;;;;;4989485;28;20057;-62
2023/08/23 05:39:32;;;;;;;13.20;9.57;;;15.90;99.90;;;;;;4983592;28;20030;-63
2023/08/23 05:41:57;;;;;;;13.65;9.45;;;15.90;99.90;;;;;;4992638;28;20027;-65
2023/08/23 05:44:23;;;;;;;13.65;9.43;;;15.90;99.90;;;;;;4987018;28;20034;-62
2023/08/23 05:46:48;;;;;;;13.10;9.38;;;15.90;99.90;;;;;;4983347;28;21196;-66
2023/08/23 05:49:14;;;;;;;14.60;10.13;;;15.80;99.90;;;;;;4979674;28;20383;-62
2023/08/23 05:51:40;;;;;;;11.88;8.73;;;15.90;99.90;;;;;;4986439;28;20042;-64
2023/08/23 05:54:06;;;;;;;13.07;10.02;;;15.90;99.90;;;;;;4991166;28;20500;-62
2023/08/23 05:56:31;;;;;;;14.15;10.10;;;15.90;99.90;;;;;;4991949;28;20050;-62
2023/08/23 05:58:57;;;;;;;16.42;9.90;;;16.00;99.90;;;;;;4980364;28;20039;-62
2023/08/23 06:01:23;;;;;;;15.32;9.93;;;16.00;99.90;;;;;;4981770;28;20097;-62
2023/08/23 06:03:49;;;;;;;12.05;9.40;;;16.10;99.90;;;;;;4983271;28;20493;-62
2023/08/23 06:06:15;;;;;;;14.52;10.18;;;16.10;99.90;;;;;;4985465;28;20076;-62
2023/08/23 06:08:40;;;;;;;13.52;10.02;;;16.10;99.90;;;;;;4983607;28;20038;-62
2023/08/23 06:11:06;;;;;;;14.68;9.98;;;16.10;99.90;;;;;;4990931;28;20042;-64
2023/08/23 06:13:32;;;;;;;14.13;9.75;;;16.20;99.90;;;;;;4967003;28;20046;-62
2023/08/23 06:15:57;;;;;;;13.40;10.25;;;16.20;99.90;;;;;;4991884;28;20568;-62
2023/08/23 06:18:23;;;;;;;12.38;10.10;;;16.30;99.90;;;;;;4973939;28;20117;-62
2023/08/23 06:20:49;;;;;;;12.60;9.68;;;16.30;99.90;;;;;;4960619;28;20672;-62
2023/08/23 06:23:16;;;;;;;15.82;10.70;;;16.30;99.90;;;;;;4969125;28;20050;-63
2023/08/23 06:25:41;;;;;;;14.77;10.50;;;16.30;99.90;;;;;;4989774;28;20043;-62
2023/08/23 06:28:07;;;;;;;14.27;10.35;;;16.40;99.90;;;;;;4962643;28;20113;-62
2023/08/23 06:30:36;;;;;;;15.43;10.00;;;16.40;99.90;;;;;;4984728;28;20400;-64
2023/08/23 06:33:02;;;;;;;13.13;10.23;;;16.40;99.90;;;;;;4982322;28;20066;-64
2023/08/23 06:35:28;;;;;;;15.32;10.48;;;16.50;99.90;;;;;;4991476;28;20101;-64
2023/08/23 06:37:53;;;;;;;14.40;11.20;;;16.50;99.90;;;;;;4992955;28;20477;-63
2023/08/23 06:40:19;;;;;;;15.70;10.90;;;16.50;99.90;;;;;;4978755;28;20130;-64
2023/08/23 06:42:45;;;;;;;16.35;11.70;;;16.50;99.90;;;;;;4979397;28;20129;-64
2023/08/23 06:45:11;;;;;;;18.45;11.38;;;16.60;99.90;;;;;;4986782;28;20081;-65
2023/08/23 06:47:37;;;;;;;14.10;11.10;;;16.60;99.90;;;;;;4982076;28;20121;-62
2023/08/23 06:50:03;;;;;;;14.05;10.48;;;16.60;99.90;;;;;;4992960;23;20092;-62
2023/08/23 06:52:29;;;;;;;13.50;11.30;;;16.60;99.90;;;;;;5011633;28;20034;-62
2023/08/23 06:54:55;;;;;;;15.18;11.65;;;16.60;99.90;;;;;;5012683;28;20112;-62
2023/08/23 06:57:28;;;;;;;15.35;11.35;;;16.70;99.90;;;;;;5000018;28;20491;-62
2023/08/23 06:59:58;;;;;;;13.55;10.73;;;16.80;99.90;;;;;;4977794;28;20060;-61
2023/08/23 07:02:24;;;;;;;16.90;11.25;;;16.80;99.90;;;;;;4998721;28;20042;-60
2023/08/23 07:04:51;;;;;;;16.10;10.70;;;16.90;99.90;;;;;;4990943;28;20088;-61
2023/08/23 07:07:21;;;;;;;15.23;10.45;;;16.90;99.90;;;;;;4985120;28;20118;-62
2023/08/23 07:09:47;;;;;;;12.65;10.43;;;16.90;99.90;;;;;;5003983;28;20128;-62
2023/08/23 07:12:12;;;;;;;14.43;10.15;;;17.10;99.90;;;;;;4994523;28;20125;-62
2023/08/23 07:14:38;;;;;;;13.77;9.85;;;17.10;99.90;;;;;;4989582;28;20042;-60
2023/08/23 07:17:04;;;;;;;12.05;9.07;;;17.20;99.90;;;;;;5000435;28;20093;-62
2023/08/23 07:19:30;;;;;;;11.07;8.20;;;17.30;99.90;;;;;;4998733;28;20396;-62
2023/08/23 07:21:58;;;;;;;10.88;8.02;;;17.40;99.90;;;;;;4977364;28;20062;-62
2023/08/23 07:24:23;;;;;;;10.77;7.40;;;17.40;99.90;;;;;;4969970;28;20092;-63
2023/08/23 07:26:49;;;;;;;12.98;6.68;;;17.50;99.90;;;;;;5002088;28;20073;-62
2023/08/23 07:29:15;;;;;;;9.38;6.25;;;17.60;99.90;;;;;;4993321;28;20443;-62
2023/08/23 07:31:42;;;;;;;9.23;6.35;;;17.70;99.90;;;;;;4999592;28;20088;-62
2023/08/23 07:34:07;;;;;;;10.18;7.38;;;17.80;99.90;;;;;;5002550;28;20112;-62
2023/08/23 07:36:33;;;;;;;11.73;6.57;;;17.90;99.90;;;;;;4987038;28;20484;-62
2023/08/23 07:38:59;;;;;;;9.25;6.05;;;18.00;99.90;;;;;;4971224;28;20473;-62
2023/08/23 07:41:24;;;;;;;8.65;6.18;;;18.10;99.90;;;;;;4967655;28;20072;-63
2023/08/23 07:43:50;;;;;;;9.23;6.60;;;18.10;99.90;;;;;;4986752;28;20132;-63
2023/08/23 07:46:15;;;;;;;9.07;6.57;;;18.20;99.90;;;;;;4996505;28;20062;-60
2023/08/23 07:48:41;;;;;;;9.68;7.25;;;18.20;99.90;;;;;;4991130;28;20192;-62
2023/08/23 07:51:07;;;;;;;8.43;6.65;;;18.30;99.90;;;;;;4992994;28;20033;-63
2023/08/23 07:53:33;;;;;;;11.00;6.72;;;18.30;99.90;;;;;;4984792;28;20069;-61
2023/08/23 07:55:59;;;;;;;8.30;6.55;;;18.30;99.90;;;;;;4988128;28;20496;-61
2023/08/23 07:58:25;;;;;;;9.43;5.70;;;18.40;99.90;;;;;;4975244;28;20047;-62
2023/08/23 08:00:51;;;;;;;9.98;6.13;;;18.40;99.90;;;;;;4992065;28;20033;-62
2023/08/23 08:03:17;;;;;;;8.57;5.68;;;18.40;99.90;;;;;;4990452;28;20046;-62
2023/08/23 08:05:42;;;;;;;9.88;6.10;;;18.40;99.90;;;;;;5001094;28;20105;-62
2023/08/23 08:08:08;;;;;;;8.38;5.80;;;18.40;99.90;;;;;;4993738;28;20034;-62
2023/08/23 08:10:34;;;;;;;8.13;5.75;;;18.50;99.90;;;;;;5003215;28;20035;-62
2023/08/23 08:13:00;;;;;;;10.57;6.53;;;18.50;99.90;;;;;;4980244;28;20038;-60
2023/08/23 08:15:26;;;;;;;8.43;6.22;;;18.60;99.90;;;;;;5001935;28;20038;-63
2023/08/23 08:17:52;;;;;;;9.10;6.25;;;18.60;99.90;;;;;;4983649;28;20488;-60
2023/08/23 08:20:19;;;;;;;8.63;6.40;;;18.60;99.90;;;;;;4991552;28;20129;-62
2023/08/23 08:22:45;;;;;;;9.60;6.70;;;18.70;99.90;;;;;;4993630;28;20038;-62
2023/08/23 08:25:11;;;;;;;10.90;7.18;;;18.80;99.90;;;;;;4997343;28;20034;-62
2023/08/23 08:27:37;;;;;;;12.73;7.10;;;18.90;99.90;;;;;;4981958;28;20042;-63
2023/08/23 08:30:03;;;;;;;9.52;7.20;;;18.90;99.90;;;;;;4995030;28;20046;-62
2023/08/23 08:32:29;;;;;;;11.77;7.15;;;19.00;99.90;;;;;;4993902;28;20085;-62
2023/08/23 08:34:57;;;;;;;11.13;7.75;;;19.10;99.90;;;;;;4994616;28;20045;-61
2023/08/23 08:37:24;;;;;;;12.13;8.23;;;19.20;99.90;;;;;;4986693;28;20466;-62
2023/08/23 08:39:50;;;;;;;11.70;7.45;;;19.40;99.90;;;;;;5001482;28;20034;-63
2023/08/23 08:42:16;;;;;;;10.95;8.13;;;19.50;99.90;;;;;;5000387;28;20391;-63
2023/08/23 08:44:46;;;;;;;10.98;8.05;;;19.70;99.90;;;;;;4998741;28;20030;-62
2023/08/23 08:47:11;;;;;;;11.15;8.50;;;19.90;99.90;;;;;;4981239;28;20037;-62
2023/08/23 08:49:37;;;;;;;;;;;20.10;99.90;;;;;;5002562;28;20038;-62
2023/08/23 08:52:04;;;;;;;13.43;8.13;;;20.30;99.90;;;;;;5000319;28;19957;-62
2023/08/23 08:54:33;;;;;;;;;;;20.50;99.90;;;;;;4999508;28;20038;-62
2023/08/23 08:57:00;;;;;;;11.25;7.88;;;20.70;99.90;;;;;;4975395;28;19921;-61
2023/08/23 08:59:26;;;;;;;;;;;20.90;99.90;;;;;;4995163;28;20085;-63
2023/08/23 09:01:52;;;;;;;;;;;21.10;99.90;;;;;;5001522;28;19918;-63
2023/08/23 09:04:18;;;;;;;;;;;21.20;99.90;;;;;;4999889;28;20020;-62
2023/08/23 09:06:45;;;;;;;;;;;21.40;99.90;;;;;;4978269;28;19972;-62
2023/08/23 09:09:11;;;;;;;;;;;21.60;99.90;;;;;;5006814;28;20003;-63
2023/08/23 09:11:36;;;;;;;12.18;7.68;;;21.70;99.90;;;;;;4988159;28;20009;-62
2023/08/23 09:14:20;;;;;;;12.77;7.97;;;21.90;99.90;;;;;;4979847;28;20092;-62
2023/08/23 09:16:47;;;;;;;13.02;9.05;;;22.10;99.90;;;;;;5001313;28;20042;-63
2023/08/23 09:19:14;;;;;;;13.23;7.32;;;22.30;99.90;;;;;;4990130;28;20059;-63
2023/08/23 09:21:43;;;;;;;;;;;22.50;99.90;;;;;;4991625;28;20408;-62
2023/08/23 09:24:09;;;;;;;9.43;7.30;;;22.60;99.90;;;;;;4997469;28;19964;-63
2023/08/23 09:26:35;;;;;;;13.32;7.75;;;22.80;99.90;;;;;;5001241;28;20034;-63
2023/08/23 09:29:03;;;;;;;;;;;23.00;99.90;;;;;;4997340;28;20427;-62
2023/08/23 09:31:29;;;;;;;13.65;7.45;;;23.10;99.90;;;;;;5008397;28;19921;-62
2023/08/23 09:33:55;;;;;;;8.80;6.28;;;23.30;99.90;;;;;;4996293;28;20488;-63
2023/08/23 09:36:29;;;;;;;10.43;6.47;;;23.40;99.90;;;;;;4997300;28;20042;-63
2023/08/23 09:39:00;;;;;;;9.73;6.13;;;23.60;99.90;;;;;;4986214;28;20456;-62
2023/08/23 09:41:26;;;;;;;9.50;6.03;;;23.60;99.90;;;;;;5000133;28;20092;-63
2023/08/23 09:43:54;;;;;;;12.48;6.28;;;23.80;99.90;;;;;;4974332;28;20065;-63
2023/08/23 09:46:27;;;;;;;8.55;5.70;;;23.90;99.90;;;;;;4992202;28;20104;-63
2023/08/23 09:48:56;;;;;;;11.80;6.22;;;23.90;99.90;;;;;;4997042;28;20034;-63
2023/08/23 09:51:25;;;;;;;10.60;6.47;;;24.00;99.90;;;;;;4994858;28;20450;-63
2023/08/23 09:53:58;;;;;;;10.10;5.90;;;24.10;99.90;;;;;;4998519;28;20034;-63
2023/08/23 09:56:24;;;;;;;8.77;5.97;;;24.20;99.90;;;;;;5003848;28;20078;-63
2023/08/23 09:58:50;;;;;;;8.30;5.63;;;24.30;99.90;;;;;;4992001;28;20085;-63
2023/08/23 10:01:16;;;;;;;6.60;4.55;;;24.30;99.90;;;;;;4974506;28;20054;-63
2023/08/23 10:03:42;;;;;;;7.75;4.78;;;24.40;99.90;;;;;;4998530;28;20057;-63
2023/08/23 10:06:09;;;;;;;10.00;4.80;;;24.50;99.90;;;;;;4987537;28;20034;-63
2023/08/23 10:08:36;;;;;;;8.00;5.00;;;24.60;99.90;;;;;;4995153;28;20034;-63
2023/08/23 10:11:01;;;;;;;8.40;4.93;;;24.70;99.90;;;;;;4993428;28;20093;-62
2023/08/23 10:13:28;;;;;;;;;;;24.90;99.90;;;;;;5000234;28;20031;-64
2023/08/23 10:15:56;;;;;;;8.32;5.32;;;24.90;99.90;;;;;;4976046;28;20376;-63
2023/08/23 10:18:24;;;;;;;7.18;3.90;;;25.00;99.90;;;;;;4970468;28;20042;-63
2023/08/23 10:20:52;;;;;;;6.57;3.75;;;25.10;99.90;;;;;;4993801;28;20448;-62
2023/08/23 10:23:18;;;;;;;7.25;4.75;;;25.20;99.90;;;;;;4991617;28;20042;-63
2023/08/23 10:25:47;;;;;;;8.85;4.70;;;25.40;99.90;;;;;;4993585;28;20153;-63
2023/08/23 10:28:18;;;;;;;7.68;4.43;;;25.40;99.90;;;;;;4993453;28;20038;-63
2023/08/23 10:30:49;;;;;;;7.47;4.55;;;25.40;99.90;;;;;;4995746;28;20042;-62
2023/08/23 10:33:16;;;;;;;;;;;25.50;99.90;;;;;;4993544;28;20042;-63
2023/08/23 10:35:44;;;;;;;7.70;3.08;;;25.50;99.90;;;;;;4974653;28;19968;-63
2023/08/23 10:38:10;;;;;;;4.90;3.10;;;25.60;99.90;;;;;;4997468;28;20045;-63
2023/08/23 10:40:37;;;;;;;6.22;3.60;;;25.70;99.90;;;;;;4994328;28;20398;-63
2023/08/23 10:43:16;;;;;;;9.35;3.50;;;25.70;98.90;;;;;;4998404;28;20034;-63
2023/08/23 10:45:49;;;;;;;7.05;3.70;;;25.70;98.10;;;;;;4994490;28;20042;-61
2023/08/23 10:48:17;;;;;;;6.38;3.65;;;25.60;98.50;;;;;;4977840;28;20521;-63
2023/08/23 10:50:43;;;;;;;10.20;4.75;;;25.70;98.90;;;;;;4986073;28;20050;-63
2023/08/23 10:53:10;;;;;;;7.57;4.60;;;25.80;98.80;;;;;;4991697;28;20069;-63
2023/08/23 10:55:37;;;;;;;9.23;4.88;;;25.80;99.30;;;;;;4997563;28;20038;-63
2023/08/23 10:58:03;;;;;;;8.98;4.55;;;25.90;99.30;;;;;;4990311;28;20046;-62
2023/08/23 11:00:29;;;;;;;8.27;5.38;;;26.10;99.40;;;;;;4990494;28;20508;-63
2023/08/23 11:02:58;;;;;;;8.27;5.07;;;26.20;98.70;;;;;;4973632;28;20030;-63
2023/08/23 11:05:24;;;;;;;10.88;5.35;;;26.30;98.10;;;;;;4992719;28;20038;-64
2023/08/23 11:07:51;;;;;;;9.65;4.93;;;26.40;97.80;;;;;;4999825;28;20107;-63
2023/08/23 11:10:18;;;;;;;6.47;3.78;;;26.40;98.10;;;;;;4994409;28;20100;-63
2023/08/23 11:12:44;;;;;;;;;;;26.50;97.90;;;;;;4981039;28;20074;-62
2023/08/23 11:15:10;;;;;;;8.48;5.00;;;26.60;97.50;;;;;;4991957;28;19998;-63
2023/08/23 11:17:37;;;;;;;7.88;4.38;;;26.60;97.70;;;;;;4987188;28;20042;-63
2023/08/23 11:20:03;;;;;;;8.80;5.30;;;26.70;97.80;;;;;;4980524;28;20034;-63
2023/08/23 11:22:29;;;;;;;10.98;6.28;;;26.80;97.80;;;;;;4967832;28;20129;-63
2023/08/23 11:24:56;;;;;;;9.00;5.40;;;26.80;97.30;;;;;;4973665;28;20121;-63
2023/08/23 11:27:22;;;;;;;7.28;4.80;;;26.90;97.50;;;;;;4984968;28;20108;-63
2023/08/23 11:29:48;;;;;;;8.35;5.10;;;27.10;97.50;;;;;;4981576;28;20061;-63
2023/08/23 11:32:14;;;;;;;8.23;5.80;;;27.10;97.60;;;;;;4977335;28;20042;-61
2023/08/23 11:34:39;;;;;;;8.32;4.90;;;27.10;96.70;;;;;;4987103;28;20501;-61
2023/08/23 11:37:08;;;;;;;7.90;4.80;;;26.90;96.90;;;;;;4982848;28;20702;-64
2023/08/23 11:39:33;;;;;;;7.13;4.40;;;26.90;96.80;;;;;;4996926;28;20050;-63
2023/08/23 11:42:00;;;;;;;6.95;3.95;;;26.90;97.10;;;;;;4992091;28;20429;-63
2023/08/23 11:44:27;;;;;;;6.88;3.40;;;26.90;96.90;;;;;;4995346;28;20042;-63
2023/08/23 11:46:53;;;;;;;8.07;3.78;;;26.60;96.30;;;;;;4986175;28;20045;-63
2023/08/23 11:49:19;;;;;;;9.50;3.70;;;26.30;96.10;;;;;;5003125;28;20051;-63
2023/08/23 11:51:50;;;;;;;8.38;4.20;;;26.20;96.50;;;;;;5000541;28;20043;-63
2023/08/23 11:54:22;;;;;;;9.13;4.38;;;26.40;96.60;;;;;;4994881;28;20125;-63
2023/08/23 11:56:47;;;;;;;9.18;4.60;;;26.50;95.80;;;;;;4999445;28;20547;-62
2023/08/23 11:59:13;;;;;;;7.97;5.00;;;26.60;95.50;;;;;;4972014;28;20035;-64
2023/08/23 12:01:42;;;;;;;8.00;4.60;;;26.70;95.10;;;;;;4994343;28;20030;-62
2023/08/23 12:04:10;;;;;;;6.70;3.95;;;26.70;95.80;;;;;;4995605;28;20029;-63
2023/08/23 12:06:36;;;;;;;6.80;3.95;;;26.80;94.80;;;;;;4973149;28;20432;-63
2023/08/23 12:09:03;;;;;;;10.07;3.85;;;26.90;94.80;;;;;;4993602;28;20049;-63
2023/08/23 12:11:30;;;;;;;6.30;3.15;;;27.10;95.00;;;;;;4968567;28;20125;-63
2023/08/23 12:13:56;;;;;;;5.45;3.20;;;27.10;94.40;;;;;;4977063;28;20058;-63
2023/08/23 12:16:21;;;;;;;6.80;4.13;;;27.00;93.90;;;;;;4994059;28;20404;-63
2023/08/23 12:18:48;;;;;;;5.70;3.80;;;26.90;94.40;;;;;;4991581;28;20042;-63
2023/08/23 12:21:15;;;;;;;7.35;3.75;;;26.90;94.40;;;;;;5000683;28;20034;-63
2023/08/23 12:23:41;;;;;;;10.05;4.55;;;27.10;94.40;;;;;;4991600;28;20105;-63
2023/08/23 12:26:06;;;;;;;7.57;3.95;;;27.20;93.60;;;;;;4997193;28;20077;-63
2023/08/23 12:28:32;;;;;;;6.40;4.50;;;27.20;93.50;;;;;;4991106;28;20053;-63
2023/08/23 12:30:58;;;;;;;7.00;3.85;;;27.00;93.40;;;;;;4974345;28;20046;-63
2023/08/23 12:33:26;;;;;;;6.47;3.60;;;26.90;93.90;;;;;;4993568;28;20048;-62
2023/08/23 12:35:52;;;;;;;7.20;3.60;;;26.80;94.50;;;;;;4985006;28;20038;-63
2023/08/23 12:38:17;;;;;;;8.05;2.97;;;26.90;94.80;;;;;;4983161;28;20056;-63
2023/08/23 12:40:43;;;;;;;7.05;3.15;;;27.00;94.70;;;;;;5002582;28;20500;-63
2023/08/23 12:43:09;;;;;;;7.80;3.63;;;26.90;93.50;;;;;;5000698;28;20100;-63
2023/08/23 12:45:34;;;;;;;6.00;3.28;;;26.80;93.20;;;;;;4994094;28;20031;-63